Accueil
METAR-TAF:

METAR-TAF

Aéroports :

Aéroport de Figari Sud Corse

Figari, France

latitude: 41-30N, longitude: 009-06E, altitude: 26 m

Observation

Le bulletin a été fait il y a 33 minutes, à 01:00 UTC
Vent 3 kt de direction variable
Température 11°C
Humidité 100%
Pression 1023 hPa
Visibilité 10 km ou plus
pas de nuages en-dessous de 1500 mètres et pas de cumulonimbus.

METAR: LFKF 260100Z AUTO VRB03KT CAVOK 11/11 Q1023

Heure: 03:33 (01:33 UTC)

Prévision

Le bulletin a été fait il y a 23 heures et 33 minutes, à 02:00 UTC
Prévision valable du 25 à 03 UTC au 26 à 03 UTC
Vent 3 kt de direction variable
Visibilité 10 km ou plus
pas de nuages en-dessous de 1500 mètres et pas de cumulonimbus.
Evoluant progressivement
du 25 à 07 UTC au 25 à 09 UTC
Vent 12 kt de est

TAF: LFKF 250200Z 2503/2603 VRB03KT CAVOK BECMG 2507/2509 08012KT

Observations et prévisions météorologiques de plus de 4000 aéroports (messages METAR et TAF).

Les stations disponibles sont représentées par des disques jaunes et rouges sur la carte.

Passer la souris dessus pour voir le nom de la station.

Cliquer dessus pour voir les observations et prévisions météorologiques.

Pour changer de carte: cliquez sur les boutons verts avec une croix noire pour zoomer, sur le bouton vert avec un tiret pour effectuer un zoom arrière, ou sur les flèches vertes pour les cartes adjacentes.


METAR-TAF: